sensor_id;sensor_type;location;lat;lon;timestamp;P1;durP1;ratioP1;P2;durP2;ratioP2
48241;SDS011;34041;51.812;4.622;2024-03-07T00:02:32;45.10;;;28.13;;
48241;SDS011;34041;51.812;4.622;2024-03-07T00:05:33;42.60;;;27.27;;
48241;SDS011;34041;51.812;4.622;2024-03-07T00:08:34;42.33;;;27.77;;
48241;SDS011;34041;51.812;4.622;2024-03-07T00:11:34;41.17;;;28.25;;
48241;SDS011;34041;51.812;4.622;2024-03-07T00:14:34;38.05;;;27.73;;
48241;SDS011;34041;51.812;4.622;2024-03-07T00:17:35;42.97;;;29.15;;
48241;SDS011;34041;51.812;4.622;2024-03-07T00:20:35;41.25;;;29.23;;
48241;SDS011;34041;51.812;4.622;2024-03-07T00:23:35;42.07;;;29.67;;
48241;SDS011;34041;51.812;4.622;2024-03-07T00:26:36;48.22;;;28.65;;
48241;SDS011;34041;51.812;4.622;2024-03-07T00:29:36;41.80;;;27.40;;
48241;SDS011;34041;51.812;4.622;2024-03-07T00:32:37;40.67;;;27.85;;
48241;SDS011;34041;51.812;4.622;2024-03-07T00:35:39;49.17;;;30.85;;
48241;SDS011;34041;51.812;4.622;2024-03-07T00:38:39;42.28;;;27.90;;
48241;SDS011;34041;51.812;4.622;2024-03-07T00:41:40;46.20;;;30.30;;
48241;SDS011;34041;51.812;4.622;2024-03-07T00:44:41;44.78;;;29.45;;
48241;SDS011;34041;51.812;4.622;2024-03-07T00:47:41;46.67;;;29.27;;
48241;SDS011;34041;51.812;4.622;2024-03-07T00:50:42;44.88;;;29.23;;
48241;SDS011;34041;51.812;4.622;2024-03-07T00:53:43;49.13;;;30.70;;
48241;SDS011;34041;51.812;4.622;2024-03-07T00:56:43;47.83;;;29.00;;
48241;SDS011;34041;51.812;4.622;2024-03-07T00:59:44;47.22;;;28.98;;
48241;SDS011;34041;51.812;4.622;2024-03-07T01:02:44;51.30;;;31.80;;
48241;SDS011;34041;51.812;4.622;2024-03-07T01:05:46;47.78;;;29.35;;
48241;SDS011;34041;51.812;4.622;2024-03-07T01:08:46;47.90;;;31.35;;
48241;SDS011;34041;51.812;4.622;2024-03-07T01:11:46;48.95;;;28.67;;
48241;SDS011;34041;51.812;4.622;2024-03-07T01:14:46;45.60;;;29.45;;
48241;SDS011;34041;51.812;4.622;2024-03-07T01:17:46;44.15;;;30.50;;
48241;SDS011;34041;51.812;4.622;2024-03-07T01:20:47;48.10;;;31.77;;
48241;SDS011;34041;51.812;4.622;2024-03-07T01:23:47;49.50;;;31.15;;
48241;SDS011;34041;51.812;4.622;2024-03-07T01:26:48;49.42;;;31.58;;
48241;SDS011;34041;51.812;4.622;2024-03-07T01:29:49;44.27;;;29.80;;
48241;SDS011;34041;51.812;4.622;2024-03-07T01:32:49;43.27;;;29.03;;
48241;SDS011;34041;51.812;4.622;2024-03-07T01:35:49;49.00;;;31.63;;
48241;SDS011;34041;51.812;4.622;2024-03-07T01:38:49;48.65;;;29.75;;
48241;SDS011;34041;51.812;4.622;2024-03-07T01:41:51;48.28;;;30.92;;
48241;SDS011;34041;51.812;4.622;2024-03-07T01:44:51;45.38;;;29.85;;
48241;SDS011;34041;51.812;4.622;2024-03-07T01:47:51;48.27;;;32.67;;
48241;SDS011;34041;51.812;4.622;2024-03-07T01:50:52;47.22;;;29.80;;
48241;SDS011;34041;51.812;4.622;2024-03-07T01:53:52;47.08;;;29.88;;
48241;SDS011;34041;51.812;4.622;2024-03-07T01:56:53;51.42;;;30.77;;
48241;SDS011;34041;51.812;4.622;2024-03-07T01:59:54;53.33;;;32.45;;
48241;SDS011;34041;51.812;4.622;2024-03-07T02:02:54;56.63;;;32.95;;
48241;SDS011;34041;51.812;4.622;2024-03-07T02:05:55;49.00;;;30.25;;
48241;SDS011;34041;51.812;4.622;2024-03-07T02:08:56;50.97;;;32.08;;
48241;SDS011;34041;51.812;4.622;2024-03-07T02:11:57;49.28;;;31.70;;
48241;SDS011;34041;51.812;4.622;2024-03-07T02:14:57;48.88;;;31.88;;
48241;SDS011;34041;51.812;4.622;2024-03-07T02:17:57;48.42;;;31.63;;
48241;SDS011;34041;51.812;4.622;2024-03-07T02:20:57;51.80;;;30.67;;
48241;SDS011;34041;51.812;4.622;2024-03-07T02:23:58;51.83;;;32.85;;
48241;SDS011;34041;51.812;4.622;2024-03-07T02:26:58;49.38;;;32.05;;
48241;SDS011;34041;51.812;4.622;2024-03-07T02:29:59;49.88;;;32.22;;
48241;SDS011;34041;51.812;4.622;2024-03-07T02:33:00;51.72;;;33.90;;
48241;SDS011;34041;51.812;4.622;2024-03-07T02:36:06;53.13;;;32.65;;
48241;SDS011;34041;51.812;4.622;2024-03-07T02:39:07;50.33;;;32.70;;
48241;SDS011;34041;51.812;4.622;2024-03-07T02:42:07;47.17;;;32.45;;
48241;SDS011;34041;51.812;4.622;2024-03-07T02:45:08;54.42;;;33.08;;
48241;SDS011;34041;51.812;4.622;2024-03-07T02:48:08;44.97;;;33.05;;
48241;SDS011;34041;51.812;4.622;2024-03-07T02:51:09;48.65;;;33.10;;
48241;SDS011;34041;51.812;4.622;2024-03-07T02:54:09;49.55;;;32.83;;
48241;SDS011;34041;51.812;4.622;2024-03-07T02:57:10;49.75;;;32.05;;
48241;SDS011;34041;51.812;4.622;2024-03-07T03:00:11;52.78;;;35.05;;
48241;SDS011;34041;51.812;4.622;2024-03-07T03:03:22;53.60;;;33.95;;
48241;SDS011;34041;51.812;4.622;2024-03-07T03:06:22;52.78;;;32.85;;
48241;SDS011;34041;51.812;4.622;2024-03-07T03:09:23;56.60;;;35.80;;
48241;SDS011;34041;51.812;4.622;2024-03-07T03:12:24;52.60;;;36.55;;
48241;SDS011;34041;51.812;4.622;2024-03-07T03:15:24;50.80;;;32.43;;
48241;SDS011;34041;51.812;4.622;2024-03-07T03:18:24;50.75;;;32.00;;
48241;SDS011;34041;51.812;4.622;2024-03-07T03:21:24;57.92;;;33.35;;
48241;SDS011;34041;51.812;4.622;2024-03-07T03:24:25;49.67;;;33.15;;
48241;SDS011;34041;51.812;4.622;2024-03-07T03:27:27;53.58;;;34.35;;
48241;SDS011;34041;51.812;4.622;2024-03-07T03:30:27;54.87;;;34.17;;
48241;SDS011;34041;51.812;4.622;2024-03-07T03:33:27;54.23;;;33.83;;
48241;SDS011;34041;51.812;4.622;2024-03-07T03:36:27;58.35;;;34.92;;
48241;SDS011;34041;51.812;4.622;2024-03-07T03:39:29;55.15;;;34.63;;
48241;SDS011;34041;51.812;4.622;2024-03-07T03:42:29;55.53;;;35.70;;
48241;SDS011;34041;51.812;4.622;2024-03-07T03:45:30;54.23;;;33.37;;
48241;SDS011;34041;51.812;4.622;2024-03-07T03:48:32;55.20;;;35.25;;
48241;SDS011;34041;51.812;4.622;2024-03-07T03:51:33;59.65;;;36.28;;
48241;SDS011;34041;51.812;4.622;2024-03-07T03:54:33;53.60;;;33.47;;
48241;SDS011;34041;51.812;4.622;2024-03-07T03:57:33;53.42;;;33.78;;
48241;SDS011;34041;51.812;4.622;2024-03-07T04:00:34;56.08;;;33.63;;
48241;SDS011;34041;51.812;4.622;2024-03-07T04:03:34;54.92;;;35.78;;
48241;SDS011;34041;51.812;4.622;2024-03-07T04:06:34;53.13;;;34.83;;
48241;SDS011;34041;51.812;4.622;2024-03-07T04:09:35;51.58;;;33.78;;
48241;SDS011;34041;51.812;4.622;2024-03-07T04:12:36;52.40;;;33.92;;
48241;SDS011;34041;51.812;4.622;2024-03-07T04:15:42;56.40;;;34.92;;
48241;SDS011;34041;51.812;4.622;2024-03-07T04:18:43;53.60;;;33.63;;
48241;SDS011;34041;51.812;4.622;2024-03-07T04:21:43;50.22;;;33.80;;
48241;SDS011;34041;51.812;4.622;2024-03-07T04:24:44;58.08;;;33.97;;
48241;SDS011;34041;51.812;4.622;2024-03-07T04:27:44;62.17;;;36.53;;
48241;SDS011;34041;51.812;4.622;2024-03-07T04:30:45;59.25;;;36.58;;
48241;SDS011;34041;51.812;4.622;2024-03-07T04:33:45;58.70;;;36.45;;
48241;SDS011;34041;51.812;4.622;2024-03-07T04:36:46;55.63;;;34.20;;
48241;SDS011;34041;51.812;4.622;2024-03-07T04:39:46;59.83;;;36.20;;
48241;SDS011;34041;51.812;4.622;2024-03-07T04:42:47;61.80;;;36.70;;
48241;SDS011;34041;51.812;4.622;2024-03-07T04:45:50;55.88;;;34.42;;
48241;SDS011;34041;51.812;4.622;2024-03-07T04:48:50;63.13;;;38.47;;
48241;SDS011;34041;51.812;4.622;2024-03-07T04:51:51;54.25;;;35.90;;
48241;SDS011;34041;51.812;4.622;2024-03-07T04:54:51;58.53;;;36.08;;
48241;SDS011;34041;51.812;4.622;2024-03-07T04:57:52;57.63;;;35.03;;
48241;SDS011;34041;51.812;4.622;2024-03-07T05:00:52;59.78;;;36.20;;
48241;SDS011;34041;51.812;4.622;2024-03-07T05:03:52;71.20;;;37.42;;
48241;SDS011;34041;51.812;4.622;2024-03-07T05:06:53;60.13;;;34.90;;
48241;SDS011;34041;51.812;4.622;2024-03-07T05:09:53;65.63;;;34.78;;
48241;SDS011;34041;51.812;4.622;2024-03-07T05:12:53;61.70;;;36.40;;
48241;SDS011;34041;51.812;4.622;2024-03-07T05:15:53;58.75;;;37.38;;
48241;SDS011;34041;51.812;4.622;2024-03-07T05:18:54;66.75;;;38.90;;
48241;SDS011;34041;51.812;4.622;2024-03-07T05:21:58;61.97;;;38.10;;
48241;SDS011;34041;51.812;4.622;2024-03-07T05:24:58;59.88;;;37.70;;
48241;SDS011;34041;51.812;4.622;2024-03-07T05:27:58;57.50;;;35.42;;
48241;SDS011;34041;51.812;4.622;2024-03-07T05:31:02;61.13;;;36.88;;
48241;SDS011;34041;51.812;4.622;2024-03-07T05:34:04;57.17;;;34.78;;
48241;SDS011;34041;51.812;4.622;2024-03-07T05:37:08;62.47;;;37.28;;
48241;SDS011;34041;51.812;4.622;2024-03-07T05:40:08;56.70;;;35.65;;
48241;SDS011;34041;51.812;4.622;2024-03-07T05:43:08;58.10;;;37.58;;
48241;SDS011;34041;51.812;4.622;2024-03-07T05:46:09;56.60;;;35.07;;
48241;SDS011;34041;51.812;4.622;2024-03-07T05:49:11;56.35;;;36.13;;
48241;SDS011;34041;51.812;4.622;2024-03-07T05:52:11;60.72;;;36.28;;
48241;SDS011;34041;51.812;4.622;2024-03-07T05:55:11;64.15;;;35.75;;
48241;SDS011;34041;51.812;4.622;2024-03-07T05:58:12;58.83;;;37.15;;
48241;SDS011;34041;51.812;4.622;2024-03-07T06:01:12;60.97;;;38.40;;
48241;SDS011;34041;51.812;4.622;2024-03-07T06:04:12;67.90;;;39.03;;
48241;SDS011;34041;51.812;4.622;2024-03-07T06:07:13;60.15;;;36.83;;
48241;SDS011;34041;51.812;4.622;2024-03-07T06:10:13;68.35;;;36.92;;
48241;SDS011;34041;51.812;4.622;2024-03-07T06:13:14;61.63;;;38.15;;
48241;SDS011;34041;51.812;4.622;2024-03-07T06:16:15;62.28;;;38.92;;
48241;SDS011;34041;51.812;4.622;2024-03-07T06:19:15;51.28;;;35.08;;
48241;SDS011;34041;51.812;4.622;2024-03-07T06:22:16;57.42;;;35.38;;
48241;SDS011;34041;51.812;4.622;2024-03-07T06:25:19;60.03;;;36.22;;
48241;SDS011;34041;51.812;4.622;2024-03-07T06:28:23;58.35;;;36.50;;
48241;SDS011;34041;51.812;4.622;2024-03-07T06:31:23;58.43;;;37.93;;
48241;SDS011;34041;51.812;4.622;2024-03-07T06:34:24;59.90;;;38.35;;
48241;SDS011;34041;51.812;4.622;2024-03-07T06:37:24;59.33;;;37.30;;
48241;SDS011;34041;51.812;4.622;2024-03-07T06:40:25;55.40;;;37.55;;
48241;SDS011;34041;51.812;4.622;2024-03-07T06:43:25;54.17;;;36.50;;
48241;SDS011;34041;51.812;4.622;2024-03-07T06:46:25;57.25;;;34.70;;
48241;SDS011;34041;51.812;4.622;2024-03-07T06:49:26;55.97;;;35.65;;
48241;SDS011;34041;51.812;4.622;2024-03-07T06:52:28;49.60;;;33.95;;
48241;SDS011;34041;51.812;4.622;2024-03-07T06:55:28;55.22;;;35.17;;
48241;SDS011;34041;51.812;4.622;2024-03-07T06:58:28;55.67;;;36.78;;
48241;SDS011;34041;51.812;4.622;2024-03-07T07:01:28;52.60;;;32.65;;
48241;SDS011;34041;51.812;4.622;2024-03-07T07:04:29;53.38;;;33.10;;
48241;SDS011;34041;51.812;4.622;2024-03-07T07:07:41;49.80;;;33.33;;
48241;SDS011;34041;51.812;4.622;2024-03-07T07:10:42;51.55;;;33.60;;
48241;SDS011;34041;51.812;4.622;2024-03-07T07:13:42;50.40;;;33.35;;
48241;SDS011;34041;51.812;4.622;2024-03-07T07:16:42;51.63;;;33.10;;
48241;SDS011;34041;51.812;4.622;2024-03-07T07:19:45;52.75;;;33.53;;
48241;SDS011;34041;51.812;4.622;2024-03-07T07:22:46;51.55;;;30.83;;
48241;SDS011;34041;51.812;4.622;2024-03-07T07:25:47;49.72;;;32.08;;
48241;SDS011;34041;51.812;4.622;2024-03-07T07:28:47;49.30;;;32.77;;
48241;SDS011;34041;51.812;4.622;2024-03-07T07:31:48;48.50;;;32.45;;
48241;SDS011;34041;51.812;4.622;2024-03-07T07:34:48;45.38;;;31.98;;
48241;SDS011;34041;51.812;4.622;2024-03-07T07:37:49;38.38;;;29.10;;
48241;SDS011;34041;51.812;4.622;2024-03-07T07:40:50;36.05;;;27.02;;
48241;SDS011;34041;51.812;4.622;2024-03-07T07:43:50;39.45;;;28.50;;
48241;SDS011;34041;51.812;4.622;2024-03-07T07:46:51;40.33;;;30.35;;
48241;SDS011;34041;51.812;4.622;2024-03-07T07:49:51;45.50;;;29.15;;
48241;SDS011;34041;51.812;4.622;2024-03-07T07:52:56;43.47;;;29.60;;
48241;SDS011;34041;51.812;4.622;2024-03-07T07:55:56;39.05;;;29.48;;
48241;SDS011;34041;51.812;4.622;2024-03-07T07:58:56;40.75;;;29.75;;
48241;SDS011;34041;51.812;4.622;2024-03-07T08:01:56;42.80;;;29.67;;
48241;SDS011;34041;51.812;4.622;2024-03-07T08:04:57;45.57;;;28.80;;
48241;SDS011;34041;51.812;4.622;2024-03-07T08:07:59;37.63;;;28.05;;
48241;SDS011;34041;51.812;4.622;2024-03-07T08:11:00;37.13;;;26.00;;
48241;SDS011;34041;51.812;4.622;2024-03-07T08:14:01;37.58;;;27.92;;
48241;SDS011;34041;51.812;4.622;2024-03-07T08:17:01;33.40;;;25.90;;
48241;SDS011;34041;51.812;4.622;2024-03-07T08:20:01;37.40;;;27.93;;
48241;SDS011;34041;51.812;4.622;2024-03-07T08:23:02;35.00;;;26.30;;
48241;SDS011;34041;51.812;4.622;2024-03-07T08:26:03;35.10;;;26.55;;
48241;SDS011;34041;51.812;4.622;2024-03-07T08:29:03;38.43;;;28.63;;
48241;SDS011;34041;51.812;4.622;2024-03-07T08:32:05;36.42;;;26.10;;
48241;SDS011;34041;51.812;4.622;2024-03-07T08:35:06;32.85;;;24.88;;
48241;SDS011;34041;51.812;4.622;2024-03-07T08:38:09;32.17;;;24.88;;
48241;SDS011;34041;51.812;4.622;2024-03-07T08:41:09;33.28;;;24.90;;
48241;SDS011;34041;51.812;4.622;2024-03-07T08:44:11;29.67;;;24.23;;
48241;SDS011;34041;51.812;4.622;2024-03-07T08:47:13;32.67;;;23.77;;
48241;SDS011;34041;51.812;4.622;2024-03-07T08:50:13;33.88;;;23.55;;
48241;SDS011;34041;51.812;4.622;2024-03-07T08:53:17;33.53;;;25.45;;
48241;SDS011;34041;51.812;4.622;2024-03-07T08:56:18;34.60;;;24.92;;
48241;SDS011;34041;51.812;4.622;2024-03-07T08:59:19;33.00;;;25.48;;
48241;SDS011;34041;51.812;4.622;2024-03-07T09:02:19;30.03;;;23.07;;
48241;SDS011;34041;51.812;4.622;2024-03-07T09:05:20;25.10;;;22.30;;
48241;SDS011;34041;51.812;4.622;2024-03-07T09:08:22;28.10;;;23.05;;
48241;SDS011;34041;51.812;4.622;2024-03-07T09:11:22;32.28;;;22.65;;
48241;SDS011;34041;51.812;4.622;2024-03-07T09:14:22;30.47;;;22.23;;
48241;SDS011;34041;51.812;4.622;2024-03-07T09:17:23;26.65;;;22.38;;
48241;SDS011;34041;51.812;4.622;2024-03-07T09:20:23;25.98;;;22.50;;
48241;SDS011;34041;51.812;4.622;2024-03-07T09:23:24;27.55;;;19.33;;
48241;SDS011;34041;51.812;4.622;2024-03-07T09:26:24;29.40;;;21.45;;
48241;SDS011;34041;51.812;4.622;2024-03-07T09:29:25;28.00;;;20.23;;
48241;SDS011;34041;51.812;4.622;2024-03-07T09:32:25;27.90;;;20.90;;
48241;SDS011;34041;51.812;4.622;2024-03-07T09:35:28;27.10;;;18.65;;
48241;SDS011;34041;51.812;4.622;2024-03-07T09:38:28;21.05;;;17.70;;
48241;SDS011;34041;51.812;4.622;2024-03-07T09:41:28;22.13;;;18.37;;
48241;SDS011;34041;51.812;4.622;2024-03-07T09:44:29;18.13;;;15.45;;
48241;SDS011;34041;51.812;4.622;2024-03-07T09:47:31;19.58;;;16.02;;
48241;SDS011;34041;51.812;4.622;2024-03-07T09:50:31;18.73;;;15.20;;
48241;SDS011;34041;51.812;4.622;2024-03-07T09:53:32;19.50;;;15.02;;
48241;SDS011;34041;51.812;4.622;2024-03-07T09:56:33;19.13;;;16.30;;
48241;SDS011;34041;51.812;4.622;2024-03-07T09:59:36;17.23;;;14.68;;
48241;SDS011;34041;51.812;4.622;2024-03-07T10:02:38;16.77;;;14.50;;
48241;SDS011;34041;51.812;4.622;2024-03-07T10:05:40;20.55;;;15.88;;
48241;SDS011;34041;51.812;4.622;2024-03-07T10:08:44;16.73;;;14.15;;
48241;SDS011;34041;51.812;4.622;2024-03-07T10:11:45;15.98;;;13.85;;
48241;SDS011;34041;51.812;4.622;2024-03-07T10:14:48;19.17;;;14.63;;
48241;SDS011;34041;51.812;4.622;2024-03-07T10:17:52;15.98;;;14.20;;
48241;SDS011;34041;51.812;4.622;2024-03-07T10:20:55;20.20;;;15.50;;
48241;SDS011;34041;51.812;4.622;2024-03-07T10:24:08;16.25;;;14.55;;
48241;SDS011;34041;51.812;4.622;2024-03-07T10:27:09;16.50;;;14.38;;
48241;SDS011;34041;51.812;4.622;2024-03-07T10:30:09;16.38;;;14.25;;
48241;SDS011;34041;51.812;4.622;2024-03-07T10:33:10;16.38;;;13.40;;
48241;SDS011;34041;51.812;4.622;2024-03-07T10:36:12;15.80;;;13.82;;
48241;SDS011;34041;51.812;4.622;2024-03-07T10:39:15;16.83;;;13.15;;
48241;SDS011;34041;51.812;4.622;2024-03-07T10:42:16;16.40;;;13.95;;
48241;SDS011;34041;51.812;4.622;2024-03-07T10:45:18;19.75;;;14.15;;
48241;SDS011;34041;51.812;4.622;2024-03-07T10:48:19;16.67;;;14.68;;
48241;SDS011;34041;51.812;4.622;2024-03-07T10:58:02;17.88;;;14.25;;
48241;SDS011;34041;51.812;4.622;2024-03-07T11:01:03;20.58;;;14.98;;
48241;SDS011;34041;51.812;4.622;2024-03-07T11:04:05;20.15;;;15.75;;
48241;SDS011;34041;51.812;4.622;2024-03-07T11:07:07;22.05;;;15.27;;
48241;SDS011;34041;51.812;4.622;2024-03-07T11:10:08;20.80;;;15.27;;
48241;SDS011;34041;51.812;4.622;2024-03-07T11:13:11;22.27;;;14.63;;
48241;SDS011;34041;51.812;4.622;2024-03-07T11:16:13;19.05;;;15.50;;
48241;SDS011;34041;51.812;4.622;2024-03-07T11:19:24;21.08;;;16.02;;
48241;SDS011;34041;51.812;4.622;2024-03-07T11:22:29;20.05;;;15.40;;
48241;SDS011;34041;51.812;4.622;2024-03-07T11:25:30;19.02;;;14.38;;
48241;SDS011;34041;51.812;4.622;2024-03-07T11:28:30;19.25;;;14.50;;
48241;SDS011;34041;51.812;4.622;2024-03-07T11:31:31;20.77;;;14.70;;
48241;SDS011;34041;51.812;4.622;2024-03-07T11:34:31;17.42;;;13.88;;
48241;SDS011;34041;51.812;4.622;2024-03-07T11:37:38;22.23;;;15.07;;
48241;SDS011;34041;51.812;4.622;2024-03-07T11:40:46;22.50;;;15.20;;
48241;SDS011;34041;51.812;4.622;2024-03-07T11:43:49;18.08;;;15.13;;
48241;SDS011;34041;51.812;4.622;2024-03-07T11:46:52;22.52;;;14.45;;
48241;SDS011;34041;51.812;4.622;2024-03-07T11:49:52;25.13;;;15.38;;
48241;SDS011;34041;51.812;4.622;2024-03-07T11:52:53;18.92;;;15.27;;
48241;SDS011;34041;51.812;4.622;2024-03-07T11:55:54;21.25;;;16.70;;
48241;SDS011;34041;51.812;4.622;2024-03-07T11:58:55;20.25;;;15.88;;
48241;SDS011;34041;51.812;4.622;2024-03-07T12:01:57;21.83;;;15.40;;
48241;SDS011;34041;51.812;4.622;2024-03-07T12:05:01;22.42;;;16.77;;
48241;SDS011;34041;51.812;4.622;2024-03-07T12:08:05;20.80;;;16.05;;
48241;SDS011;34041;51.812;4.622;2024-03-07T12:11:05;22.08;;;16.85;;
48241;SDS011;34041;51.812;4.622;2024-03-07T12:14:06;24.25;;;17.58;;
48241;SDS011;34041;51.812;4.622;2024-03-07T12:17:07;26.13;;;17.25;;
48241;SDS011;34041;51.812;4.622;2024-03-07T12:20:07;22.65;;;16.50;;
48241;SDS011;34041;51.812;4.622;2024-03-07T12:23:24;23.48;;;17.45;;
48241;SDS011;34041;51.812;4.622;2024-03-07T12:26:25;21.30;;;15.80;;
48241;SDS011;34041;51.812;4.622;2024-03-07T12:29:28;20.52;;;16.90;;
48241;SDS011;34041;51.812;4.622;2024-03-07T12:32:28;21.80;;;17.23;;
48241;SDS011;34041;51.812;4.622;2024-03-07T12:35:29;19.90;;;15.57;;
48241;SDS011;34041;51.812;4.622;2024-03-07T12:38:29;21.98;;;16.30;;
48241;SDS011;34041;51.812;4.622;2024-03-07T12:41:35;21.88;;;16.55;;
48241;SDS011;34041;51.812;4.622;2024-03-07T12:44:41;20.10;;;15.02;;
48241;SDS011;34041;51.812;4.622;2024-03-07T12:47:47;18.90;;;14.52;;
48241;SDS011;34041;51.812;4.622;2024-03-07T12:50:52;22.52;;;16.73;;
48241;SDS011;34041;51.812;4.622;2024-03-07T12:53:55;23.08;;;16.55;;
48241;SDS011;34041;51.812;4.622;2024-03-07T12:56:56;19.08;;;14.15;;
48241;SDS011;34041;51.812;4.622;2024-03-07T12:59:56;24.77;;;16.02;;
48241;SDS011;34041;51.812;4.622;2024-03-07T13:02:56;21.13;;;15.03;;
48241;SDS011;34041;51.812;4.622;2024-03-07T13:05:57;20.15;;;15.77;;
48241;SDS011;34041;51.812;4.622;2024-03-07T13:09:00;20.73;;;16.52;;
48241;SDS011;34041;51.812;4.622;2024-03-07T13:12:01;21.70;;;15.35;;
48241;SDS011;34041;51.812;4.622;2024-03-07T13:15:01;21.45;;;15.25;;
48241;SDS011;34041;51.812;4.622;2024-03-07T13:18:02;25.55;;;16.08;;
48241;SDS011;34041;51.812;4.622;2024-03-07T13:21:05;31.08;;;17.35;;
48241;SDS011;34041;51.812;4.622;2024-03-07T13:24:06;22.10;;;15.20;;
48241;SDS011;34041;51.812;4.622;2024-03-07T13:27:08;21.40;;;16.92;;
48241;SDS011;34041;51.812;4.622;2024-03-07T13:30:11;18.45;;;14.15;;
48241;SDS011;34041;51.812;4.622;2024-03-07T13:33:22;19.85;;;15.07;;
48241;SDS011;34041;51.812;4.622;2024-03-07T13:36:24;22.08;;;17.95;;
48241;SDS011;34041;51.812;4.622;2024-03-07T13:39:25;22.58;;;18.05;;
48241;SDS011;34041;51.812;4.622;2024-03-07T13:42:25;24.63;;;18.10;;
48241;SDS011;34041;51.812;4.622;2024-03-07T13:45:35;24.23;;;16.77;;
48241;SDS011;34041;51.812;4.622;2024-03-07T13:48:44;21.75;;;17.60;;
48241;SDS011;34041;51.812;4.622;2024-03-07T13:51:46;23.08;;;19.40;;
48241;SDS011;34041;51.812;4.622;2024-03-07T13:54:50;27.23;;;19.05;;
48241;SDS011;34041;51.812;4.622;2024-03-07T13:57:53;24.63;;;20.23;;
48241;SDS011;34041;51.812;4.622;2024-03-07T14:07:24;23.45;;;19.70;;
48241;SDS011;34041;51.812;4.622;2024-03-07T14:10:40;22.23;;;18.65;;
48241;SDS011;34041;51.812;4.622;2024-03-07T14:32:50;23.98;;;18.20;;
48241;SDS011;34041;51.812;4.622;2024-03-07T14:38:58;21.73;;;16.17;;
48241;SDS011;34041;51.812;4.622;2024-03-07T14:41:59;20.35;;;15.45;;
48241;SDS011;34041;51.812;4.622;2024-03-07T14:45:01;19.70;;;15.10;;
48241;SDS011;34041;51.812;4.622;2024-03-07T14:48:07;23.92;;;16.73;;
48241;SDS011;34041;51.812;4.622;2024-03-07T14:51:12;18.70;;;15.23;;
48241;SDS011;34041;51.812;4.622;2024-03-07T14:54:13;22.02;;;16.40;;
48241;SDS011;34041;51.812;4.622;2024-03-07T14:57:13;24.50;;;15.80;;
48241;SDS011;34041;51.812;4.622;2024-03-07T15:00:14;22.75;;;13.98;;
48241;SDS011;34041;51.812;4.622;2024-03-07T15:03:26;18.83;;;13.82;;
48241;SDS011;34041;51.812;4.622;2024-03-07T15:06:28;20.77;;;15.43;;
48241;SDS011;34041;51.812;4.622;2024-03-07T15:09:31;21.08;;;14.43;;
48241;SDS011;34041;51.812;4.622;2024-03-07T15:12:34;22.40;;;15.00;;
48241;SDS011;34041;51.812;4.622;2024-03-07T15:15:34;21.08;;;15.68;;
48241;SDS011;34041;51.812;4.622;2024-03-07T15:18:34;20.92;;;14.75;;
48241;SDS011;34041;51.812;4.622;2024-03-07T15:21:35;20.73;;;15.55;;
48241;SDS011;34041;51.812;4.622;2024-03-07T15:24:35;19.98;;;13.82;;
48241;SDS011;34041;51.812;4.622;2024-03-07T15:27:38;21.25;;;15.75;;
48241;SDS011;34041;51.812;4.622;2024-03-07T15:30:39;20.35;;;15.85;;
48241;SDS011;34041;51.812;4.622;2024-03-07T15:33:42;19.92;;;15.95;;
48241;SDS011;34041;51.812;4.622;2024-03-07T15:36:44;22.70;;;16.30;;
48241;SDS011;34041;51.812;4.622;2024-03-07T15:39:44;19.50;;;15.52;;
48241;SDS011;34041;51.812;4.622;2024-03-07T15:42:48;25.67;;;17.20;;
48241;SDS011;34041;51.812;4.622;2024-03-07T15:45:51;22.58;;;16.08;;
48241;SDS011;34041;51.812;4.622;2024-03-07T15:48:51;20.55;;;16.73;;
48241;SDS011;34041;51.812;4.622;2024-03-07T15:51:51;20.70;;;14.73;;
48241;SDS011;34041;51.812;4.622;2024-03-07T15:54:52;20.70;;;15.57;;
48241;SDS011;34041;51.812;4.622;2024-03-07T15:57:56;22.38;;;16.17;;
48241;SDS011;34041;51.812;4.622;2024-03-07T16:00:56;19.42;;;14.65;;
48241;SDS011;34041;51.812;4.622;2024-03-07T16:03:56;20.37;;;15.27;;
48241;SDS011;34041;51.812;4.622;2024-03-07T16:06:57;22.90;;;17.13;;
48241;SDS011;34041;51.812;4.622;2024-03-07T16:09:58;21.73;;;14.85;;
48241;SDS011;34041;51.812;4.622;2024-03-07T16:12:59;19.52;;;15.35;;
48241;SDS011;34041;51.812;4.622;2024-03-07T16:16:01;20.17;;;17.08;;
48241;SDS011;34041;51.812;4.622;2024-03-07T16:22:06;18.23;;;14.43;;
48241;SDS011;34041;51.812;4.622;2024-03-07T16:25:07;20.00;;;14.57;;
48241;SDS011;34041;51.812;4.622;2024-03-07T16:28:08;21.30;;;16.30;;
48241;SDS011;34041;51.812;4.622;2024-03-07T16:31:11;21.90;;;17.05;;
48241;SDS011;34041;51.812;4.622;2024-03-07T16:34:11;20.33;;;15.63;;
48241;SDS011;34041;51.812;4.622;2024-03-07T16:37:11;19.20;;;15.32;;
48241;SDS011;34041;51.812;4.622;2024-03-07T16:40:14;19.20;;;14.93;;
48241;SDS011;34041;51.812;4.622;2024-03-07T16:43:19;20.10;;;15.70;;
48241;SDS011;34041;51.812;4.622;2024-03-07T16:46:19;18.52;;;15.27;;
48241;SDS011;34041;51.812;4.622;2024-03-07T16:49:20;19.58;;;14.57;;
48241;SDS011;34041;51.812;4.622;2024-03-07T16:52:20;20.45;;;15.55;;
48241;SDS011;34041;51.812;4.622;2024-03-07T16:55:23;21.77;;;14.93;;
48241;SDS011;34041;51.812;4.622;2024-03-07T16:58:23;18.80;;;14.85;;
48241;SDS011;34041;51.812;4.622;2024-03-07T17:01:24;18.60;;;15.93;;
48241;SDS011;34041;51.812;4.622;2024-03-07T17:04:24;23.05;;;16.73;;
48241;SDS011;34041;51.812;4.622;2024-03-07T17:07:24;20.30;;;15.68;;
48241;SDS011;34041;51.812;4.622;2024-03-07T17:10:25;21.20;;;16.17;;
48241;SDS011;34041;51.812;4.622;2024-03-07T17:13:25;24.90;;;17.30;;
48241;SDS011;34041;51.812;4.622;2024-03-07T17:16:25;19.88;;;15.23;;
48241;SDS011;34041;51.812;4.622;2024-03-07T17:19:26;23.33;;;16.08;;
48241;SDS011;34041;51.812;4.622;2024-03-07T17:22:26;20.73;;;16.52;;
48241;SDS011;34041;51.812;4.622;2024-03-07T17:25:27;18.70;;;15.45;;
48241;SDS011;34041;51.812;4.622;2024-03-07T17:28:30;19.73;;;16.75;;
48241;SDS011;34041;51.812;4.622;2024-03-07T17:31:31;21.25;;;15.95;;
48241;SDS011;34041;51.812;4.622;2024-03-07T17:34:32;20.75;;;15.15;;
48241;SDS011;34041;51.812;4.622;2024-03-07T17:37:32;20.55;;;14.27;;
48241;SDS011;34041;51.812;4.622;2024-03-07T17:40:36;20.53;;;15.90;;
48241;SDS011;34041;51.812;4.622;2024-03-07T17:43:36;19.77;;;15.57;;
48241;SDS011;34041;51.812;4.622;2024-03-07T17:46:37;20.08;;;15.18;;
48241;SDS011;34041;51.812;4.622;2024-03-07T17:49:37;20.33;;;15.15;;
48241;SDS011;34041;51.812;4.622;2024-03-07T17:52:41;19.63;;;14.60;;
48241;SDS011;34041;51.812;4.622;2024-03-07T17:55:41;23.20;;;16.02;;
48241;SDS011;34041;51.812;4.622;2024-03-07T17:58:43;20.23;;;16.50;;
48241;SDS011;34041;51.812;4.622;2024-03-07T18:01:43;18.90;;;14.48;;
48241;SDS011;34041;51.812;4.622;2024-03-07T18:04:44;18.88;;;14.63;;
48241;SDS011;34041;51.812;4.622;2024-03-07T18:10:49;19.40;;;13.80;;
48241;SDS011;34041;51.812;4.622;2024-03-07T18:13:50;20.73;;;15.70;;
48241;SDS011;34041;51.812;4.622;2024-03-07T18:16:50;19.27;;;15.65;;
48241;SDS011;34041;51.812;4.622;2024-03-07T18:19:51;18.08;;;13.93;;
48241;SDS011;34041;51.812;4.622;2024-03-07T18:22:51;21.98;;;15.38;;